Terminal Aerodrome Forecast
Issued by NWS

Home | Current Version | Previous Version | Text Only | Print | Product List | Glossary On
Versions: 1 2 3 4 5 6 7 8 9 10 11 12 13 14 15 16 17 18 19 20 21 22 23 24 25 26
000
FTUS44 KOUN 262340
TAFLAW
TAF
KLAW 262340Z 2700/2724 16015G23KT P6SM SCT035
     FM270100 17015G22KT P6SM VCTS BKN040CB
      TEMPO 2701/2703 VRB15G30KT 2SM +TSRA BKN025CB
     FM270400 15012G25KT 5SM -TSRA BR OVC015CB
     FM270600 16012KT P6SM BKN015
     FM271500 17015G22KT P6SM SCT025=

USA.gov is the U.S. government's official web portal to all federal, state and local government web resources and services.